createdAt,value
2023-03-20T00:00:31.482Z,87.15
2023-03-20T00:01:35.167Z,87.85
2023-03-20T00:02:38.821Z,83.95
2023-03-20T00:03:41.223Z,84.15
2023-03-20T00:04:44.563Z,90.22
2023-03-20T00:05:46.861Z,80.75
2023-03-20T00:06:50.130Z,86.68
2023-03-20T00:07:52.790Z,80.38
2023-03-20T00:08:57.438Z,88.47
2023-03-20T00:09:59.989Z,86.68
2023-03-20T00:11:03.465Z,91.80
2023-03-20T00:12:06.293Z,93.35
2023-03-20T00:13:13.013Z,96.28
2023-03-20T00:14:16.600Z,91.15
2023-03-20T00:15:24.664Z,93.45
2023-03-20T00:16:30.669Z,98.53
2023-03-20T00:17:35.468Z,85.72
2023-03-20T00:18:38.589Z,88.35
2023-03-20T00:19:41.894Z,91.18
2023-03-20T00:20:44.260Z,96.18
2023-03-20T00:21:48.575Z,91.28
2023-03-20T00:22:51.695Z,88.65
2023-03-20T00:23:55.597Z,94.80
2023-03-20T00:24:57.942Z,95.93
2023-03-20T00:26:01.270Z,90.50
2023-03-20T00:27:03.590Z,90.70
2023-03-20T00:28:24.796Z,94.43
2023-03-20T00:29:28.234Z,100.07
2023-03-20T00:30:32.064Z,93.78
2023-03-20T00:31:36.328Z,88.97
2023-03-20T00:32:41.176Z,90.85
2023-03-20T00:33:44.194Z,88.78
2023-03-20T00:34:48.177Z,85.75
2023-03-20T00:35:50.601Z,88.82
2023-03-20T00:36:53.926Z,91.60
2023-03-20T00:37:56.954Z,86.10
2023-03-20T00:39:00.262Z,87.50
2023-03-20T00:40:02.648Z,86.72
2023-03-20T00:41:14.312Z,89.32
2023-03-20T00:42:21.232Z,101.85
2023-03-20T00:43:24.560Z,104.55
2023-03-20T00:44:28.339Z,105.70
2023-03-20T00:45:32.234Z,110.57
2023-03-20T00:46:37.348Z,111.25
2023-03-20T00:47:42.576Z,120.30
2023-03-20T00:48:45.051Z,122.00
2023-03-20T00:49:49.930Z,111.65
2023-03-20T00:50:52.644Z,119.82
2023-03-20T00:51:56.404Z,113.72
2023-03-20T00:52:59.201Z,106.03
2023-03-20T00:54:02.461Z,113.90
2023-03-20T00:55:05.030Z,113.07
2023-03-20T00:56:08.721Z,115.35
2023-03-20T00:57:13.478Z,117.63
2023-03-20T00:58:16.754Z,111.90
2023-03-20T00:59:21.316Z,115.82
2023-03-20T01:00:26.593Z,114.63
2023-03-20T01:01:29.364Z,124.88
2023-03-20T01:02:32.736Z,118.45
2023-03-20T01:03:38.534Z,122.70
2023-03-20T01:04:43.615Z,114.70
2023-03-20T01:05:46.703Z,111.85
2023-03-20T01:06:50.098Z,119.10
2023-03-20T01:07:52.508Z,123.43
2023-03-20T01:08:57.736Z,114.78
2023-03-20T01:10:00.055Z,104.10
2023-03-20T01:11:03.497Z,106.18
2023-03-20T01:12:07.878Z,103.57
2023-03-20T01:13:17.192Z,105.28
2023-03-20T01:14:19.527Z,102.05
2023-03-20T01:15:23.462Z,100.47
2023-03-20T01:16:27.114Z,100.13
2023-03-20T01:17:30.818Z,112.90
2023-03-20T01:18:33.265Z,102.50
2023-03-20T01:19:38.230Z,100.93
2023-03-20T01:20:40.801Z,99.93
2023-03-20T01:21:44.104Z,103.35
2023-03-20T01:22:46.552Z,109.32
2023-03-20T01:23:50.613Z,112.05
2023-03-20T01:24:52.995Z,105.53
2023-03-20T01:25:56.296Z,107.47
2023-03-20T01:26:59.013Z,113.03
2023-03-20T01:28:02.737Z,116.45
2023-03-20T01:29:05.235Z,120.43
2023-03-20T01:30:17.719Z,117.15
2023-03-20T01:31:21.425Z,125.47
2023-03-20T01:32:23.764Z,123.18
2023-03-20T01:33:29.422Z,113.78
2023-03-20T01:34:31.735Z,125.32
2023-03-20T01:35:37.004Z,120.28
2023-03-20T01:36:41.322Z,134.20
2023-03-20T01:37:45.120Z,111.50
2023-03-20T01:38:48.765Z,112.40
2023-03-20T01:39:52.113Z,113.93
2023-03-20T01:40:57.267Z,115.15
2023-03-20T01:42:00.890Z,108.63
2023-03-20T01:43:03.410Z,113.65
2023-03-20T01:44:15.355Z,118.93
2023-03-20T01:45:19.265Z,109.20
2023-03-20T01:46:25.274Z,114.55
2023-03-20T01:47:27.899Z,101.85
2023-03-20T01:48:37.768Z,112.65
2023-03-20T01:49:58.733Z,108.43
2023-03-20T01:51:03.361Z,103.43
2023-03-20T01:52:05.847Z,111.95
2023-03-20T01:53:11.640Z,99.47
2023-03-20T01:54:16.393Z,101.40
2023-03-20T01:55:19.903Z,100.57
2023-03-20T01:56:22.243Z,94.25
2023-03-20T01:57:26.528Z,94.70
2023-03-20T01:58:33.415Z,98.47
2023-03-20T01:59:38.734Z,99.30
2023-03-20T02:00:42.184Z,94.97
2023-03-20T02:01:45.437Z,100.03
2023-03-20T02:02:49.482Z,85.72
2023-03-20T02:03:51.985Z,114.18
2023-03-20T02:04:57.218Z,96.45
2023-03-20T02:06:00.271Z,82.63
2023-03-20T02:07:05.345Z,81.28
2023-03-20T02:08:13.704Z,86.95
2023-03-20T02:09:17.085Z,109.32
2023-03-20T02:10:19.669Z,89.20
2023-03-20T02:11:24.371Z,87.03
2023-03-20T02:12:26.703Z,82.35
2023-03-20T02:13:31.199Z,82.80
2023-03-20T02:14:33.547Z,87.43
2023-03-20T02:15:37.783Z,86.68
2023-03-20T02:16:40.800Z,98.50
2023-03-20T02:17:44.348Z,84.93
2023-03-20T02:18:48.985Z,123.47
2023-03-20T02:20:00.221Z,182.65
2023-03-20T02:21:17.408Z,150.90
2023-03-20T02:22:34.468Z,132.55
2023-03-20T02:23:51.170Z,120.18
2023-03-20T02:25:15.705Z,99.70
2023-03-20T02:26:22.515Z,86.40
2023-03-20T02:27:31.944Z,88.22
2023-03-20T02:28:46.715Z,122.00
2023-03-20T02:30:01.741Z,69.78
2023-03-20T02:31:17.680Z,80.40
2023-03-20T02:32:48.298Z,76.13
2023-03-20T02:34:02.768Z,82.43
2023-03-20T02:35:26.255Z,81.50
2023-03-20T02:36:42.382Z,77.82
2023-03-20T02:38:02.128Z,76.63
2023-03-20T02:39:14.914Z,73.53
2023-03-20T02:40:22.274Z,78.13
2023-03-20T02:41:26.596Z,85.78
2023-03-20T02:42:36.392Z,77.60
2023-03-20T02:43:43.623Z,104.75
2023-03-20T02:44:49.193Z,95.03
2023-03-20T02:45:54.881Z,87.70
2023-03-20T02:47:00.738Z,105.00
2023-03-20T02:48:08.515Z,102.82
2023-03-20T02:49:17.615Z,105.22
2023-03-20T02:50:22.364Z,82.45
2023-03-20T02:51:32.815Z,80.40
2023-03-20T02:52:40.700Z,84.43
2023-03-20T02:53:51.440Z,80.88
2023-03-20T02:54:58.369Z,116.88
2023-03-20T02:56:06.256Z,122.20
2023-03-20T02:57:10.316Z,143.27
2023-03-20T02:58:16.552Z,112.80
2023-03-20T02:59:23.072Z,105.80
2023-03-20T03:00:29.516Z,195.63
2023-03-20T03:01:33.838Z,114.65
2023-03-20T03:02:39.505Z,95.57
2023-03-20T03:03:44.921Z,216.35
2023-03-20T03:04:51.816Z,72.03
2023-03-20T03:05:55.341Z,85.57
2023-03-20T03:06:59.380Z,69.15
2023-03-20T03:08:03.364Z,68.97
2023-03-20T03:09:09.492Z,69.60
2023-03-20T03:10:12.967Z,77.45
2023-03-20T03:11:17.567Z,77.75
2023-03-20T03:12:21.908Z,74.43
2023-03-20T03:13:29.122Z,74.47
2023-03-20T03:14:34.524Z,79.40
2023-03-20T03:15:40.521Z,70.03
2023-03-20T03:16:43.648Z,74.63
2023-03-20T03:17:49.242Z,72.65
2023-03-20T03:18:54.324Z,74.93
2023-03-20T03:19:59.112Z,77.32
2023-03-20T03:21:03.284Z,79.78
2023-03-20T03:22:07.722Z,81.00
2023-03-20T03:23:15.745Z,77.28
2023-03-20T03:24:39.722Z,83.65
2023-03-20T03:25:44.632Z,77.13
2023-03-20T03:26:46.918Z,81.13
2023-03-20T03:27:53.621Z,85.15
2023-03-20T03:28:57.979Z,87.38
2023-03-20T03:30:03.757Z,83.40
2023-03-20T03:31:07.666Z,88.45
2023-03-20T03:32:23.278Z,85.20
2023-03-20T03:33:26.969Z,83.32
2023-03-20T03:34:31.246Z,84.80
2023-03-20T03:35:33.946Z,89.35
2023-03-20T03:36:41.386Z,84.50
2023-03-20T03:37:47.344Z,86.40
2023-03-20T03:38:56.352Z,91.25
2023-03-20T03:40:04.646Z,88.38
2023-03-20T03:41:14.085Z,81.93
2023-03-20T03:42:21.615Z,79.88
2023-03-20T03:43:27.808Z,79.35
2023-03-20T03:44:32.963Z,81.82
2023-03-20T03:45:39.907Z,73.20
2023-03-20T03:46:45.120Z,73.13
2023-03-20T03:47:52.136Z,79.15
2023-03-20T03:48:56.438Z,78.32
2023-03-20T03:50:01.728Z,78.05
2023-03-20T03:51:06.691Z,76.88
2023-03-20T03:52:11.958Z,75.88
2023-03-20T03:53:14.906Z,76.03
2023-03-20T03:54:19.956Z,73.22
2023-03-20T03:55:25.346Z,78.07
2023-03-20T03:56:30.055Z,72.55
2023-03-20T03:57:34.826Z,77.05
2023-03-20T03:58:39.695Z,76.60
2023-03-20T03:59:44.274Z,75.88
2023-03-20T04:00:50.530Z,76.13
2023-03-20T04:01:53.366Z,69.18
2023-03-20T04:02:57.527Z,74.22
2023-03-20T04:04:01.449Z,67.63
2023-03-20T04:05:05.462Z,64.38
2023-03-20T04:06:10.261Z,72.70
2023-03-20T04:07:15.451Z,71.50
2023-03-20T04:08:17.756Z,64.90
2023-03-20T04:09:21.103Z,65.47
2023-03-20T04:10:24.817Z,73.55
2023-03-20T04:11:29.446Z,63.00
2023-03-20T04:12:34.129Z,64.95
2023-03-20T04:13:37.426Z,62.08
2023-03-20T04:14:39.725Z,63.58
2023-03-20T04:15:43.012Z,65.93
2023-03-20T04:16:45.441Z,67.82
2023-03-20T04:17:49.018Z,61.60
2023-03-20T04:18:51.340Z,63.00
2023-03-20T04:19:54.656Z,62.35
2023-03-20T04:20:56.979Z,61.20
2023-03-20T04:22:00.473Z,60.30
2023-03-20T04:23:04.672Z,62.67
2023-03-20T04:24:08.372Z,62.25
2023-03-20T04:25:11.316Z,63.80
2023-03-20T04:26:15.967Z,59.75
2023-03-20T04:27:18.259Z,60.95
2023-03-20T04:28:21.530Z,55.75
2023-03-20T04:29:24.392Z,50.22
2023-03-20T04:30:27.724Z,54.13
2023-03-20T04:31:30.631Z,59.78
2023-03-20T04:32:33.986Z,54.78
2023-03-20T04:33:36.317Z,61.30
2023-03-20T04:34:39.644Z,55.45
2023-03-20T04:35:42.013Z,53.45
2023-03-20T04:36:45.603Z,55.10
2023-03-20T04:37:47.953Z,55.20
2023-03-20T04:38:51.242Z,58.20
2023-03-20T04:39:53.528Z,57.63
2023-03-20T04:40:56.822Z,60.05
2023-03-20T04:42:00.508Z,55.13
2023-03-20T04:43:03.769Z,49.58
2023-03-20T04:44:06.094Z,55.28
2023-03-20T04:45:10.150Z,54.78
2023-03-20T04:46:12.457Z,49.03
2023-03-20T04:47:16.187Z,50.60
2023-03-20T04:48:18.538Z,50.72
2023-03-20T04:49:21.812Z,51.30
2023-03-20T04:50:24.210Z,51.80
2023-03-20T04:51:27.474Z,47.58
2023-03-20T04:52:29.794Z,49.60
2023-03-20T04:53:33.118Z,47.50
2023-03-20T04:54:35.426Z,49.78
2023-03-20T04:55:38.747Z,46.60
2023-03-20T04:56:41.071Z,52.22
2023-03-20T04:57:45.929Z,48.53
2023-03-20T04:58:48.273Z,53.17
2023-03-20T04:59:51.553Z,47.47
2023-03-20T05:00:53.863Z,45.88
2023-03-20T05:01:57.246Z,45.97
2023-03-20T05:02:59.898Z,51.50
2023-03-20T05:04:03.273Z,44.75
2023-03-20T05:05:06.020Z,44.55
2023-03-20T05:06:09.769Z,46.97
2023-03-20T05:07:12.127Z,49.08
2023-03-20T05:08:15.566Z,48.28
2023-03-20T05:09:18.186Z,49.50
2023-03-20T05:10:21.488Z,44.15
2023-03-20T05:11:23.785Z,49.97
2023-03-20T05:12:28.126Z,50.85
2023-03-20T05:13:31.785Z,48.78
2023-03-20T05:14:35.164Z,47.45
2023-03-20T05:15:37.851Z,47.20
2023-03-20T05:16:41.257Z,42.70
2023-03-20T05:17:43.559Z,42.80
2023-03-20T05:18:46.863Z,49.28
2023-03-20T05:19:49.939Z,52.00
2023-03-20T05:20:53.197Z,59.65
2023-03-20T05:21:55.647Z,48.03
2023-03-20T05:22:58.922Z,51.08
2023-03-20T05:24:01.568Z,52.53
2023-03-20T05:25:04.994Z,53.85
2023-03-20T05:26:07.524Z,52.25
2023-03-20T05:27:10.825Z,48.53
2023-03-20T05:28:13.190Z,44.70
2023-03-20T05:29:17.833Z,46.58
2023-03-20T05:30:20.159Z,46.60
2023-03-20T05:31:23.619Z,51.20
2023-03-20T05:32:26.164Z,52.25
2023-03-20T05:33:29.434Z,48.47
2023-03-20T05:34:31.750Z,44.58
2023-03-20T05:35:35.438Z,46.97
2023-03-20T05:36:37.976Z,43.92
2023-03-20T05:37:41.474Z,42.55
2023-03-20T05:38:43.831Z,45.42
2023-03-20T05:39:47.124Z,43.47
2023-03-20T05:40:49.594Z,45.08
2023-03-20T05:41:52.943Z,44.03
2023-03-20T05:42:55.289Z,36.78
2023-03-20T05:43:58.596Z,42.55
2023-03-20T05:45:02.298Z,40.05
2023-03-20T05:46:05.720Z,41.55
2023-03-20T05:47:08.156Z,42.00
2023-03-20T05:48:11.524Z,42.92
2023-03-20T05:49:13.927Z,44.20
2023-03-20T05:50:17.527Z,40.60
2023-03-20T05:51:19.852Z,43.40
2023-03-20T05:52:23.232Z,41.67
2023-03-20T05:53:25.682Z,42.58
2023-03-20T05:54:28.976Z,43.50
2023-03-20T05:55:31.328Z,42.58
2023-03-20T05:56:34.655Z,52.90
2023-03-20T05:57:37.067Z,45.50
2023-03-20T05:58:40.337Z,46.22
2023-03-20T05:59:43.028Z,49.47
2023-03-20T06:00:47.700Z,42.70
2023-03-20T06:01:50.035Z,43.47
2023-03-20T06:02:53.432Z,51.53
2023-03-20T06:03:56.038Z,49.13
2023-03-20T06:04:59.386Z,49.95
2023-03-20T06:06:01.663Z,44.50
2023-03-20T06:07:06.285Z,44.88
2023-03-20T06:08:08.622Z,46.17
2023-03-20T06:09:11.914Z,42.90
2023-03-20T06:10:14.269Z,46.17
2023-03-20T06:11:17.583Z,43.40
2023-03-20T06:12:19.913Z,45.70
2023-03-20T06:13:23.248Z,45.17
2023-03-20T06:14:26.061Z,45.10
2023-03-20T06:15:29.743Z,37.30
2023-03-20T06:16:33.401Z,40.70
2023-03-20T06:17:36.727Z,42.22
2023-03-20T06:18:39.394Z,45.03
2023-03-20T06:19:42.737Z,43.22
2023-03-20T06:20:45.274Z,45.33
2023-03-20T06:21:48.592Z,41.28
2023-03-20T06:22:51.184Z,46.90
2023-03-20T06:23:54.856Z,43.67
2023-03-20T06:24:57.501Z,40.05
2023-03-20T06:26:00.905Z,44.03
2023-03-20T06:27:03.235Z,38.80
2023-03-20T06:28:06.740Z,44.60
2023-03-20T06:29:09.074Z,40.92
2023-03-20T06:30:13.160Z,42.83
2023-03-20T06:31:15.544Z,38.83
2023-03-20T06:32:20.397Z,35.45
2023-03-20T06:33:22.764Z,41.55
2023-03-20T06:34:26.078Z,44.33
2023-03-20T06:35:31.223Z,41.08
2023-03-20T06:36:34.598Z,43.50
2023-03-20T06:37:37.018Z,50.65
2023-03-20T06:38:40.351Z,50.40
2023-03-20T06:39:42.753Z,47.13
2023-03-20T06:40:46.231Z,47.08
2023-03-20T06:41:48.542Z,52.10
2023-03-20T06:42:51.906Z,54.88
2023-03-20T06:43:54.219Z,73.38
2023-03-20T06:44:57.520Z,85.28
2023-03-20T06:46:00.976Z,80.75
2023-03-20T06:47:03.288Z,83.60
2023-03-20T06:48:09.631Z,79.05
2023-03-20T06:49:11.917Z,83.75
2023-03-20T06:50:15.702Z,87.28
2023-03-20T06:51:18.054Z,72.53
2023-03-20T06:52:22.759Z,67.25
2023-03-20T06:53:25.105Z,65.65
2023-03-20T06:54:28.589Z,58.88
2023-03-20T06:55:31.243Z,56.55
2023-03-20T06:56:34.546Z,46.30
2023-03-20T06:57:37.137Z,39.58
2023-03-20T06:58:40.505Z,39.67
2023-03-20T06:59:42.822Z,41.83
2023-03-20T07:00:46.662Z,41.92
2023-03-20T07:01:49.067Z,41.58
2023-03-20T07:02:52.387Z,36.63
2023-03-20T07:03:57.033Z,36.55
2023-03-20T07:04:59.371Z,37.50
2023-03-20T07:06:03.119Z,35.33
2023-03-20T07:07:06.406Z,35.60
2023-03-20T07:08:08.755Z,34.58
2023-03-20T07:09:12.086Z,35.75
2023-03-20T07:10:14.410Z,37.17
2023-03-20T07:11:17.718Z,33.38
2023-03-20T07:12:26.504Z,37.47
2023-03-20T07:13:29.799Z,34.08
2023-03-20T07:14:32.222Z,36.83
2023-03-20T07:15:35.710Z,32.47
2023-03-20T07:16:38.221Z,31.17
2023-03-20T07:17:41.584Z,30.02
2023-03-20T07:18:43.884Z,30.75
2023-03-20T07:19:48.534Z,32.80
2023-03-20T07:20:52.190Z,31.23
2023-03-20T07:21:58.657Z,31.33
2023-03-20T07:23:01.928Z,29.35
2023-03-20T07:24:04.329Z,30.65
2023-03-20T07:25:08.379Z,29.13
2023-03-20T07:26:10.713Z,25.23
2023-03-20T07:27:14.038Z,31.05
2023-03-20T07:28:16.336Z,31.15
2023-03-20T07:29:19.607Z,31.52
2023-03-20T07:30:22.933Z,27.20
2023-03-20T07:31:26.266Z,27.67
2023-03-20T07:32:29.568Z,30.70
2023-03-20T07:33:33.003Z,23.50
2023-03-20T07:34:35.627Z,25.05
2023-03-20T07:35:40.481Z,24.77
2023-03-20T07:36:44.076Z,26.15
2023-03-20T07:37:46.567Z,23.90
2023-03-20T07:38:49.905Z,22.67
2023-03-20T07:39:52.231Z,23.25
2023-03-20T07:40:56.196Z,21.05
2023-03-20T07:41:58.530Z,22.67
2023-03-20T07:43:02.244Z,22.25
2023-03-20T07:44:04.670Z,21.45
2023-03-20T07:45:09.399Z,20.05
2023-03-20T07:46:11.870Z,20.13
2023-03-20T07:47:15.165Z,17.70
2023-03-20T07:48:17.474Z,24.05
2023-03-20T07:49:21.561Z,20.95
2023-03-20T07:50:24.857Z,17.73
2023-03-20T07:51:29.496Z,18.00
2023-03-20T07:52:31.792Z,20.65
2023-03-20T07:53:35.183Z,18.70
2023-03-20T07:54:37.474Z,26.33
2023-03-20T07:55:40.770Z,19.98
2023-03-20T07:56:43.275Z,21.75
2023-03-20T07:57:46.565Z,21.85
2023-03-20T07:58:48.894Z,20.88
2023-03-20T07:59:52.196Z,20.90
2023-03-20T08:00:54.899Z,20.58
2023-03-20T08:01:58.203Z,22.48
2023-03-20T08:03:01.634Z,21.70
2023-03-20T08:04:04.195Z,24.13
2023-03-20T08:05:08.029Z,22.55
2023-03-20T08:06:11.720Z,21.27
2023-03-20T08:07:16.155Z,22.25
2023-03-20T08:08:19.574Z,21.30
2023-03-20T08:09:23.048Z,21.35
2023-03-20T08:10:25.588Z,22.85
2023-03-20T08:11:29.008Z,21.30
2023-03-20T08:12:31.308Z,25.95
2023-03-20T08:13:34.825Z,26.05
2023-03-20T08:14:38.731Z,23.33
2023-03-20T08:15:42.065Z,24.90
2023-03-20T08:16:45.433Z,24.52
2023-03-20T08:17:48.757Z,27.50
2023-03-20T08:18:52.801Z,29.10
2023-03-20T08:19:56.123Z,25.52
2023-03-20T08:20:59.497Z,24.63
2023-03-20T08:22:02.787Z,27.52
2023-03-20T08:23:07.849Z,24.33
2023-03-20T08:24:11.302Z,25.75
2023-03-20T08:25:13.662Z,25.85
2023-03-20T08:26:17.192Z,28.77
2023-03-20T08:27:19.666Z,31.88
2023-03-20T08:28:36.363Z,28.23
2023-03-20T08:29:46.798Z,27.95
2023-03-20T08:30:49.129Z,28.73
2023-03-20T08:31:52.444Z,29.23
2023-03-20T08:32:55.845Z,30.13
2023-03-20T08:33:59.416Z,29.50
2023-03-20T08:35:01.764Z,29.15
2023-03-20T08:36:05.281Z,29.33
2023-03-20T08:37:09.925Z,27.23
2023-03-20T08:38:14.404Z,29.10
2023-03-20T08:39:17.665Z,25.15
2023-03-20T08:40:20.047Z,24.83
2023-03-20T08:41:23.308Z,26.02
2023-03-20T08:42:25.668Z,23.27
2023-03-20T08:43:29.000Z,22.50
2023-03-20T08:44:31.291Z,24.38
2023-03-20T08:45:34.728Z,23.20
2023-03-20T08:46:38.183Z,23.42
2023-03-20T08:47:41.454Z,23.80
2023-03-20T08:48:43.750Z,24.67
2023-03-20T08:49:47.203Z,21.10
2023-03-20T08:50:49.597Z,21.88
2023-03-20T08:51:52.983Z,19.55
2023-03-20T08:52:55.339Z,18.27
2023-03-20T08:53:59.988Z,21.13
2023-03-20T08:55:03.873Z,16.77
2023-03-20T08:56:07.618Z,18.27
2023-03-20T08:57:11.143Z,19.88
2023-03-20T08:58:14.435Z,20.50
2023-03-20T08:59:17.758Z,21.23
2023-03-20T09:00:21.375Z,17.88
2023-03-20T09:01:23.799Z,18.50
2023-03-20T09:02:27.205Z,14.75
2023-03-20T09:03:30.572Z,16.08
2023-03-20T09:04:33.867Z,16.02
2023-03-20T09:05:37.663Z,16.77
2023-03-20T09:06:41.762Z,15.88
2023-03-20T09:07:44.144Z,15.30
2023-03-20T09:08:47.615Z,16.45
2023-03-20T09:09:52.230Z,14.43
2023-03-20T09:10:55.516Z,13.52
2023-03-20T09:11:58.565Z,10.50
2023-03-20T09:13:09.585Z,12.60
2023-03-20T09:14:19.110Z,13.10
2023-03-20T09:15:22.391Z,16.70
2023-03-20T09:16:24.760Z,16.02
2023-03-20T09:17:28.130Z,15.45
2023-03-20T09:18:30.696Z,13.05
2023-03-20T09:19:34.031Z,11.20
2023-03-20T09:20:36.741Z,9.40
2023-03-20T09:21:40.225Z,11.65
2023-03-20T09:22:45.148Z,9.77
2023-03-20T09:23:48.449Z,10.65
2023-03-20T09:24:53.095Z,11.60
2023-03-20T09:25:56.398Z,11.45
2023-03-20T09:26:58.712Z,12.18
2023-03-20T09:28:02.018Z,11.65
2023-03-20T09:29:05.625Z,12.88
2023-03-20T09:30:08.801Z,11.23
2023-03-20T09:31:12.380Z,10.20
2023-03-20T09:32:15.664Z,9.63
2023-03-20T09:33:19.607Z,10.25
2023-03-20T09:34:22.921Z,12.45
2023-03-20T09:35:26.226Z,13.02
2023-03-20T09:36:28.505Z,13.23
2023-03-20T09:37:31.847Z,15.05
2023-03-20T09:38:35.179Z,13.25
2023-03-20T09:39:37.478Z,15.73
2023-03-20T09:40:50.233Z,13.25
2023-03-20T09:41:57.494Z,14.32
2023-03-20T09:43:07.133Z,13.63
2023-03-20T09:44:14.368Z,13.45
2023-03-20T09:45:19.089Z,15.90
2023-03-20T09:46:27.894Z,17.40
2023-03-20T09:47:34.008Z,16.25
2023-03-20T09:48:39.790Z,13.30
2023-03-20T09:49:46.782Z,13.25
2023-03-20T09:50:56.658Z,18.38
2023-03-20T09:52:00.803Z,11.30
2023-03-20T09:53:07.265Z,12.45
2023-03-20T09:54:13.540Z,11.63
2023-03-20T09:55:18.777Z,11.85
2023-03-20T09:56:23.924Z,10.68
2023-03-20T09:57:28.928Z,10.20
2023-03-20T09:58:33.720Z,10.57
2023-03-20T09:59:38.151Z,12.90
2023-03-20T10:00:41.395Z,14.82
2023-03-20T10:01:49.347Z,13.65
2023-03-20T10:02:54.231Z,12.68
2023-03-20T10:03:58.612Z,11.20
2023-03-20T10:05:02.017Z,9.57
2023-03-20T10:06:06.932Z,11.52
2023-03-20T10:07:12.480Z,12.88
2023-03-20T10:08:17.455Z,10.35
2023-03-20T10:09:23.245Z,8.95
2023-03-20T10:10:28.685Z,12.07
2023-03-20T10:11:41.671Z,9.98
2023-03-20T10:12:49.665Z,10.73
2023-03-20T10:14:02.022Z,13.93
2023-03-20T10:15:08.981Z,9.75
2023-03-20T10:16:16.112Z,10.25
2023-03-20T10:17:25.562Z,10.15
2023-03-20T10:18:29.761Z,12.00
2023-03-20T10:19:33.171Z,9.82
2023-03-20T10:20:39.676Z,8.35
2023-03-20T10:21:44.488Z,8.52
2023-03-20T10:22:49.909Z,9.05
2023-03-20T10:23:58.275Z,6.93
2023-03-20T10:25:04.856Z,10.02
2023-03-20T10:26:08.823Z,7.97
2023-03-20T10:27:17.921Z,9.10
2023-03-20T10:28:23.660Z,11.05
2023-03-20T10:29:33.887Z,9.70
2023-03-20T10:30:44.386Z,9.13
2023-03-20T10:31:49.674Z,8.80
2023-03-20T10:32:56.957Z,10.45
2023-03-20T10:34:05.202Z,10.37
2023-03-20T10:35:14.935Z,10.27
2023-03-20T10:36:26.846Z,9.20
2023-03-20T10:37:35.740Z,9.68
2023-03-20T10:38:41.538Z,10.52
2023-03-20T10:39:50.614Z,9.52
2023-03-20T10:40:54.829Z,10.98
2023-03-20T10:41:58.360Z,11.30
2023-03-20T10:43:04.529Z,10.23
2023-03-20T10:44:12.728Z,11.57
2023-03-20T10:45:23.452Z,9.68
2023-03-20T10:46:28.908Z,11.57
2023-03-20T10:47:34.090Z,10.10
2023-03-20T10:48:40.051Z,8.60
2023-03-20T10:49:43.876Z,11.13
2023-03-20T10:50:49.086Z,10.52
2023-03-20T10:51:53.228Z,12.52
2023-03-20T10:52:58.095Z,9.38
2023-03-20T10:54:03.936Z,11.73
2023-03-20T10:55:07.726Z,12.65
2023-03-20T10:56:15.144Z,12.35
2023-03-20T10:57:23.110Z,13.80
2023-03-20T10:58:28.716Z,13.95
2023-03-20T10:59:35.837Z,11.15
2023-03-20T11:00:38.474Z,13.35
2023-03-20T11:01:41.869Z,13.80
2023-03-20T11:02:44.214Z,15.75
2023-03-20T11:03:47.619Z,17.83
2023-03-20T11:04:50.964Z,17.30
2023-03-20T11:06:08.548Z,17.27
2023-03-20T11:07:17.783Z,17.00
2023-03-20T11:08:23.594Z,19.80
2023-03-20T11:09:29.891Z,21.40
2023-03-20T11:10:32.614Z,18.50
2023-03-20T11:11:36.383Z,15.00
2023-03-20T11:12:39.618Z,17.33
2023-03-20T11:13:45.426Z,20.23
2023-03-20T11:14:47.730Z,20.45
2023-03-20T11:15:53.740Z,24.27
2023-03-20T11:16:57.733Z,18.40
2023-03-20T11:18:01.882Z,18.80
2023-03-20T11:19:08.499Z,22.77
2023-03-20T11:20:11.859Z,21.27
2023-03-20T11:21:18.550Z,23.20
2023-03-20T11:22:25.241Z,19.45
2023-03-20T11:23:30.279Z,18.02
2023-03-20T11:24:37.671Z,21.92
2023-03-20T11:25:48.076Z,21.75
2023-03-20T11:26:52.780Z,21.05
2023-03-20T11:27:55.953Z,20.30
2023-03-20T11:29:01.752Z,22.52
2023-03-20T11:30:07.391Z,19.80
2023-03-20T11:31:17.986Z,21.65
2023-03-20T11:32:24.053Z,22.58
2023-03-20T11:33:27.145Z,23.50
2023-03-20T11:34:41.044Z,18.80
2023-03-20T11:35:45.976Z,22.27
2023-03-20T11:37:08.881Z,23.48
2023-03-20T11:38:15.973Z,22.08
2023-03-20T11:39:24.554Z,24.95
2023-03-20T11:40:32.036Z,24.13
2023-03-20T11:41:35.522Z,25.77
2023-03-20T11:42:38.963Z,22.27
2023-03-20T11:43:42.513Z,26.02
2023-03-20T11:44:58.152Z,22.55
2023-03-20T11:46:04.445Z,21.55
2023-03-20T11:47:12.146Z,20.27
2023-03-20T11:48:18.672Z,18.48
2023-03-20T11:49:22.308Z,20.85
2023-03-20T11:50:31.725Z,22.73
2023-03-20T11:51:36.301Z,20.58
2023-03-20T11:52:40.373Z,20.02
2023-03-20T11:53:48.034Z,20.17
2023-03-20T11:54:51.568Z,21.33
2023-03-20T11:56:05.812Z,20.60
2023-03-20T11:57:09.149Z,20.20
2023-03-20T11:58:16.597Z,17.75
2023-03-20T11:59:20.440Z,21.85
2023-03-20T12:00:25.944Z,20.40
2023-03-20T12:01:29.013Z,21.40
2023-03-20T12:02:32.452Z,19.52
2023-03-20T12:03:41.037Z,23.42
2023-03-20T12:04:47.172Z,20.35
2023-03-20T12:05:49.504Z,20.02
2023-03-20T12:06:55.036Z,20.88
2023-03-20T12:07:59.141Z,22.13
2023-03-20T12:09:04.681Z,16.55
2023-03-20T12:10:09.185Z,19.98
2023-03-20T12:11:20.146Z,21.25
2023-03-20T12:12:32.223Z,18.88
2023-03-20T12:13:37.077Z,21.70
2023-03-20T12:14:43.322Z,17.55
2023-03-20T12:15:48.271Z,16.73
2023-03-20T12:16:53.340Z,18.13
2023-03-20T12:17:58.337Z,15.30
2023-03-20T12:19:03.021Z,17.15
2023-03-20T12:20:08.994Z,14.60
2023-03-20T12:21:14.088Z,15.50
2023-03-20T12:22:21.669Z,16.13
2023-03-20T12:23:30.657Z,13.90
2023-03-20T12:24:37.842Z,13.50
2023-03-20T12:25:45.307Z,10.65
2023-03-20T12:26:53.007Z,10.73
2023-03-20T12:28:04.362Z,9.52
2023-03-20T12:29:10.031Z,11.80
2023-03-20T12:30:15.013Z,12.38
2023-03-20T12:31:26.476Z,10.60
2023-03-20T12:32:31.785Z,9.52
2023-03-20T12:33:43.992Z,8.38
2023-03-20T12:34:49.657Z,13.15
2023-03-20T12:35:53.059Z,9.70
2023-03-20T12:36:57.586Z,10.68
2023-03-20T12:38:00.249Z,10.18
2023-03-20T12:39:04.637Z,12.15
2023-03-20T12:40:07.986Z,12.10
2023-03-20T12:41:13.641Z,14.13
2023-03-20T12:42:20.168Z,13.73
2023-03-20T12:43:27.078Z,13.60
2023-03-20T12:44:38.245Z,14.73
2023-03-20T12:45:44.126Z,16.52
2023-03-20T12:46:53.355Z,19.17
2023-03-20T12:48:03.116Z,18.52
2023-03-20T12:49:12.161Z,14.60
2023-03-20T12:50:18.977Z,13.70
2023-03-20T12:51:24.468Z,9.40
2023-03-20T12:52:31.452Z,12.32
2023-03-20T12:53:40.444Z,9.40
2023-03-20T12:54:49.870Z,11.57
2023-03-20T12:55:59.052Z,10.48
2023-03-20T12:57:05.495Z,9.45
2023-03-20T12:58:15.378Z,8.75
2023-03-20T12:59:21.904Z,9.18
2023-03-20T13:00:32.105Z,9.93
2023-03-20T13:01:38.793Z,11.73
2023-03-20T13:02:48.698Z,14.90
2023-03-20T13:03:58.897Z,18.60
2023-03-20T13:05:10.511Z,23.30
2023-03-20T13:06:16.658Z,16.88
2023-03-20T13:07:19.980Z,19.70
2023-03-20T13:08:32.529Z,19.42
2023-03-20T13:09:48.161Z,13.35
2023-03-20T13:10:58.528Z,13.07
2023-03-20T13:12:08.069Z,18.95
2023-03-20T13:13:15.385Z,14.25
2023-03-20T13:14:26.485Z,14.55
2023-03-20T13:15:32.651Z,10.40
2023-03-20T13:16:42.208Z,8.98
2023-03-20T13:17:48.024Z,7.38
2023-03-20T13:18:55.045Z,12.10
2023-03-20T13:20:04.456Z,11.50
2023-03-20T13:21:10.697Z,10.10
2023-03-20T13:22:17.149Z,12.70
2023-03-20T13:23:22.097Z,8.00
2023-03-20T13:24:32.795Z,12.10
2023-03-20T13:25:54.829Z,11.43
2023-03-20T13:27:02.530Z,8.65
2023-03-20T13:28:10.031Z,9.93
2023-03-20T13:29:17.055Z,7.50
2023-03-20T13:30:24.413Z,8.40
2023-03-20T13:31:41.397Z,7.93
2023-03-20T13:32:52.447Z,6.25
2023-03-20T13:34:00.288Z,5.70
2023-03-20T13:35:23.279Z,7.88
2023-03-20T13:36:28.032Z,6.28
2023-03-20T13:37:36.060Z,9.07
2023-03-20T13:38:42.138Z,6.10
2023-03-20T13:39:47.597Z,6.03
2023-03-20T13:40:54.299Z,6.90
2023-03-20T13:41:57.665Z,5.30
2023-03-20T13:43:02.679Z,8.75
2023-03-20T13:44:06.429Z,4.55
2023-03-20T13:45:16.275Z,5.03
2023-03-20T13:46:22.017Z,5.53
2023-03-20T13:47:27.384Z,5.95
2023-03-20T13:48:35.021Z,5.78
2023-03-20T13:49:39.588Z,4.22
2023-03-20T13:50:45.849Z,5.05
2023-03-20T13:51:54.780Z,4.70
2023-03-20T13:53:00.784Z,5.40
2023-03-20T13:54:08.753Z,4.78
2023-03-20T13:55:17.278Z,5.72
2023-03-20T13:56:24.473Z,3.95
2023-03-20T13:57:34.518Z,5.43